sensor_id;sensor_type;location;lat;lon;timestamp;temperature;humidity
66928;DHT22;59882;45.624;11.698;2022-10-16T00:00:31;18.50;75.40
66928;DHT22;59882;45.624;11.698;2022-10-16T00:02:56;18.50;75.60
66928;DHT22;59882;45.624;11.698;2022-10-16T00:05:22;18.50;75.90
66928;DHT22;59882;45.624;11.698;2022-10-16T00:07:48;18.50;76.00
66928;DHT22;59882;45.624;11.698;2022-10-16T00:10:13;18.50;76.00
66928;DHT22;59882;45.624;11.698;2022-10-16T00:12:39;18.40;76.10
66928;DHT22;59882;45.624;11.698;2022-10-16T00:15:05;18.40;76.30
66928;DHT22;59882;45.624;11.698;2022-10-16T00:17:31;18.40;76.00
66928;DHT22;59882;45.624;11.698;2022-10-16T00:19:57;18.40;76.30
66928;DHT22;59882;45.624;11.698;2022-10-16T00:22:23;18.40;76.00
66928;DHT22;59882;45.624;11.698;2022-10-16T00:27:22;18.40;76.60
66928;DHT22;59882;45.624;11.698;2022-10-16T00:29:52;18.40;76.10
66928;DHT22;59882;45.624;11.698;2022-10-16T00:32:20;18.40;76.10
66928;DHT22;59882;45.624;11.698;2022-10-16T00:34:46;18.40;76.10
66928;DHT22;59882;45.624;11.698;2022-10-16T00:37:12;18.40;76.40
66928;DHT22;59882;45.624;11.698;2022-10-16T00:39:38;18.40;76.60
66928;DHT22;59882;45.624;11.698;2022-10-16T00:42:04;18.40;76.50
66928;DHT22;59882;45.624;11.698;2022-10-16T00:44:52;18.30;76.60
66928;DHT22;59882;45.624;11.698;2022-10-16T00:49:55;18.30;76.80
66928;DHT22;59882;45.624;11.698;2022-10-16T00:52:22;18.30;76.90
66928;DHT22;59882;45.624;11.698;2022-10-16T00:54:49;18.30;76.90
66928;DHT22;59882;45.624;11.698;2022-10-16T00:57:15;18.30;76.90
66928;DHT22;59882;45.624;11.698;2022-10-16T00:59:42;18.20;76.90
66928;DHT22;59882;45.624;11.698;2022-10-16T01:02:11;18.30;77.10
66928;DHT22;59882;45.624;11.698;2022-10-16T01:04:44;18.20;77.10
66928;DHT22;59882;45.624;11.698;2022-10-16T01:07:45;18.30;77.10
66928;DHT22;59882;45.624;11.698;2022-10-16T01:10:49;18.20;77.10
66928;DHT22;59882;45.624;11.698;2022-10-16T01:13:27;18.20;76.90
66928;DHT22;59882;45.624;11.698;2022-10-16T01:15:59;18.20;77.10
66928;DHT22;59882;45.624;11.698;2022-10-16T01:18:30;18.20;77.20
66928;DHT22;59882;45.624;11.698;2022-10-16T01:21:07;18.20;77.20
66928;DHT22;59882;45.624;11.698;2022-10-16T01:26:28;18.20;77.50
66928;DHT22;59882;45.624;11.698;2022-10-16T01:29:03;18.20;77.60
66928;DHT22;59882;45.624;11.698;2022-10-16T01:31:33;18.10;77.70
66928;DHT22;59882;45.624;11.698;2022-10-16T01:34:09;18.10;77.80
66928;DHT22;59882;45.624;11.698;2022-10-16T01:36:43;18.10;77.60
66928;DHT22;59882;45.624;11.698;2022-10-16T01:39:11;18.10;77.60
66928;DHT22;59882;45.624;11.698;2022-10-16T01:41:41;18.10;77.50
66928;DHT22;59882;45.624;11.698;2022-10-16T01:44:16;18.00;77.70
66928;DHT22;59882;45.624;11.698;2022-10-16T01:46:46;18.10;77.50
66928;DHT22;59882;45.624;11.698;2022-10-16T01:49:14;18.00;77.80
66928;DHT22;59882;45.624;11.698;2022-10-16T01:51:45;18.00;77.90
66928;DHT22;59882;45.624;11.698;2022-10-16T01:54:14;18.00;77.70
66928;DHT22;59882;45.624;11.698;2022-10-16T01:56:41;17.90;78.00
66928;DHT22;59882;45.624;11.698;2022-10-16T01:59:13;17.90;78.10
66928;DHT22;59882;45.624;11.698;2022-10-16T02:01:42;17.90;78.20
66928;DHT22;59882;45.624;11.698;2022-10-16T02:04:34;17.90;78.40
66928;DHT22;59882;45.624;11.698;2022-10-16T02:07:01;17.90;78.40
66928;DHT22;59882;45.624;11.698;2022-10-16T02:09:26;17.90;78.40
66928;DHT22;59882;45.624;11.698;2022-10-16T02:11:57;17.80;78.40
66928;DHT22;59882;45.624;11.698;2022-10-16T02:14:25;17.80;78.50
66928;DHT22;59882;45.624;11.698;2022-10-16T02:16:51;17.80;78.50
66928;DHT22;59882;45.624;11.698;2022-10-16T02:19:18;17.80;78.50
66928;DHT22;59882;45.624;11.698;2022-10-16T02:22:01;17.80;78.50
66928;DHT22;59882;45.624;11.698;2022-10-16T02:28:01;17.80;78.50
66928;DHT22;59882;45.624;11.698;2022-10-16T02:30:50;17.70;78.50
66928;DHT22;59882;45.624;11.698;2022-10-16T02:33:18;17.70;78.50
66928;DHT22;59882;45.624;11.698;2022-10-16T02:35:46;17.70;78.40
66928;DHT22;59882;45.624;11.698;2022-10-16T02:38:14;17.70;78.40
66928;DHT22;59882;45.624;11.698;2022-10-16T02:40:41;17.70;78.40
66928;DHT22;59882;45.624;11.698;2022-10-16T02:43:08;17.60;78.50
66928;DHT22;59882;45.624;11.698;2022-10-16T02:45:34;17.70;78.60
66928;DHT22;59882;45.624;11.698;2022-10-16T02:47:59;17.70;78.50
66928;DHT22;59882;45.624;11.698;2022-10-16T02:50:25;17.70;78.50
66928;DHT22;59882;45.624;11.698;2022-10-16T02:52:51;17.70;78.50
66928;DHT22;59882;45.624;11.698;2022-10-16T02:55:17;17.60;78.40
66928;DHT22;59882;45.624;11.698;2022-10-16T02:57:42;17.70;78.30
66928;DHT22;59882;45.624;11.698;2022-10-16T03:00:13;17.60;78.60
66928;DHT22;59882;45.624;11.698;2022-10-16T03:02:38;17.60;78.50
66928;DHT22;59882;45.624;11.698;2022-10-16T03:05:04;17.60;78.60
66928;DHT22;59882;45.624;11.698;2022-10-16T03:07:30;17.60;78.60
66928;DHT22;59882;45.624;11.698;2022-10-16T03:09:56;17.70;78.80
66928;DHT22;59882;45.624;11.698;2022-10-16T03:12:21;17.70;78.70
66928;DHT22;59882;45.624;11.698;2022-10-16T03:14:47;17.70;78.60
66928;DHT22;59882;45.624;11.698;2022-10-16T03:17:13;17.70;78.60
66928;DHT22;59882;45.624;11.698;2022-10-16T03:19:41;17.60;78.50
66928;DHT22;59882;45.624;11.698;2022-10-16T03:22:07;17.70;78.40
66928;DHT22;59882;45.624;11.698;2022-10-16T03:24:33;17.70;78.50
66928;DHT22;59882;45.624;11.698;2022-10-16T03:26:59;17.60;78.40
66928;DHT22;59882;45.624;11.698;2022-10-16T03:29:25;17.70;78.50
66928;DHT22;59882;45.624;11.698;2022-10-16T03:31:51;17.60;78.50
66928;DHT22;59882;45.624;11.698;2022-10-16T03:34:17;17.60;78.50
66928;DHT22;59882;45.624;11.698;2022-10-16T03:36:43;17.60;78.50
66928;DHT22;59882;45.624;11.698;2022-10-16T03:39:08;17.60;78.50
66928;DHT22;59882;45.624;11.698;2022-10-16T03:41:34;17.60;78.50
66928;DHT22;59882;45.624;11.698;2022-10-16T03:43:59;17.60;78.40
66928;DHT22;59882;45.624;11.698;2022-10-16T03:46:25;17.60;78.40
66928;DHT22;59882;45.624;11.698;2022-10-16T03:48:51;17.50;78.30
66928;DHT22;59882;45.624;11.698;2022-10-16T03:51:16;17.50;78.30
66928;DHT22;59882;45.624;11.698;2022-10-16T03:53:42;17.50;78.40
66928;DHT22;59882;45.624;11.698;2022-10-16T03:56:07;17.40;78.30
66928;DHT22;59882;45.624;11.698;2022-10-16T03:58:33;17.40;78.50
66928;DHT22;59882;45.624;11.698;2022-10-16T04:00:59;17.40;78.50
66928;DHT22;59882;45.624;11.698;2022-10-16T04:03:24;17.40;78.50
66928;DHT22;59882;45.624;11.698;2022-10-16T04:05:50;17.40;78.50
66928;DHT22;59882;45.624;11.698;2022-10-16T04:08:16;17.30;78.70
66928;DHT22;59882;45.624;11.698;2022-10-16T04:10:45;17.30;78.60
66928;DHT22;59882;45.624;11.698;2022-10-16T04:13:11;17.30;78.70
66928;DHT22;59882;45.624;11.698;2022-10-16T04:15:37;17.30;78.80
66928;DHT22;59882;45.624;11.698;2022-10-16T04:18:03;17.20;78.70
66928;DHT22;59882;45.624;11.698;2022-10-16T04:20:29;17.20;78.70
66928;DHT22;59882;45.624;11.698;2022-10-16T04:22:55;17.20;78.80
66928;DHT22;59882;45.624;11.698;2022-10-16T04:25:21;17.20;78.70
66928;DHT22;59882;45.624;11.698;2022-10-16T04:27:47;17.10;78.70
66928;DHT22;59882;45.624;11.698;2022-10-16T04:30:13;17.10;78.80
66928;DHT22;59882;45.624;11.698;2022-10-16T04:32:39;17.10;78.70
66928;DHT22;59882;45.624;11.698;2022-10-16T04:35:05;17.10;78.70
66928;DHT22;59882;45.624;11.698;2022-10-16T04:37:30;17.00;78.70
66928;DHT22;59882;45.624;11.698;2022-10-16T04:39:56;17.10;78.70
66928;DHT22;59882;45.624;11.698;2022-10-16T04:42:22;17.00;78.70
66928;DHT22;59882;45.624;11.698;2022-10-16T04:44:47;17.00;78.70
66928;DHT22;59882;45.624;11.698;2022-10-16T04:47:13;17.00;78.70
66928;DHT22;59882;45.624;11.698;2022-10-16T04:49:39;17.00;78.60
66928;DHT22;59882;45.624;11.698;2022-10-16T04:52:05;16.90;78.60
66928;DHT22;59882;45.624;11.698;2022-10-16T04:54:30;16.90;78.80
66928;DHT22;59882;45.624;11.698;2022-10-16T04:56:56;16.90;78.80
66928;DHT22;59882;45.624;11.698;2022-10-16T04:59:22;16.90;78.80
66928;DHT22;59882;45.624;11.698;2022-10-16T05:01:48;16.90;78.80
66928;DHT22;59882;45.624;11.698;2022-10-16T05:04:14;16.90;79.00
66928;DHT22;59882;45.624;11.698;2022-10-16T05:06:41;16.90;79.10
66928;DHT22;59882;45.624;11.698;2022-10-16T05:09:07;16.80;78.90
66928;DHT22;59882;45.624;11.698;2022-10-16T05:11:34;16.80;79.10
66928;DHT22;59882;45.624;11.698;2022-10-16T05:14:00;16.80;79.10
66928;DHT22;59882;45.624;11.698;2022-10-16T05:16:25;16.80;79.20
66928;DHT22;59882;45.624;11.698;2022-10-16T05:18:52;16.80;79.10
66928;DHT22;59882;45.624;11.698;2022-10-16T05:21:17;16.80;79.30
66928;DHT22;59882;45.624;11.698;2022-10-16T05:23:43;16.80;79.20
66928;DHT22;59882;45.624;11.698;2022-10-16T05:26:09;16.80;79.10
66928;DHT22;59882;45.624;11.698;2022-10-16T05:28:35;16.70;79.10
66928;DHT22;59882;45.624;11.698;2022-10-16T05:31:08;16.70;79.10
66928;DHT22;59882;45.624;11.698;2022-10-16T05:33:34;16.60;79.00
66928;DHT22;59882;45.624;11.698;2022-10-16T05:36:10;16.60;79.00
66928;DHT22;59882;45.624;11.698;2022-10-16T05:38:36;16.60;79.10
66928;DHT22;59882;45.624;11.698;2022-10-16T05:41:04;16.50;79.20
66928;DHT22;59882;45.624;11.698;2022-10-16T05:43:30;16.50;79.10
66928;DHT22;59882;45.624;11.698;2022-10-16T05:45:58;16.50;79.10
66928;DHT22;59882;45.624;11.698;2022-10-16T05:48:24;16.40;79.20
66928;DHT22;59882;45.624;11.698;2022-10-16T05:51:01;16.40;79.30
66928;DHT22;59882;45.624;11.698;2022-10-16T05:53:29;16.40;79.40
66928;DHT22;59882;45.624;11.698;2022-10-16T05:55:56;16.40;79.30
66928;DHT22;59882;45.624;11.698;2022-10-16T05:58:22;16.30;79.10
66928;DHT22;59882;45.624;11.698;2022-10-16T06:01:00;16.30;79.10
66928;DHT22;59882;45.624;11.698;2022-10-16T06:03:26;16.30;79.20
66928;DHT22;59882;45.624;11.698;2022-10-16T06:05:52;16.20;79.30
66928;DHT22;59882;45.624;11.698;2022-10-16T06:08:19;16.20;79.40
66928;DHT22;59882;45.624;11.698;2022-10-16T06:10:45;16.20;79.50
66928;DHT22;59882;45.624;11.698;2022-10-16T06:13:12;16.20;79.50
66928;DHT22;59882;45.624;11.698;2022-10-16T06:15:38;16.20;79.70
66928;DHT22;59882;45.624;11.698;2022-10-16T06:18:05;16.20;79.80
66928;DHT22;59882;45.624;11.698;2022-10-16T06:20:30;16.20;79.70
66928;DHT22;59882;45.624;11.698;2022-10-16T06:22:57;16.20;79.90
66928;DHT22;59882;45.624;11.698;2022-10-16T06:25:22;16.20;80.10
66928;DHT22;59882;45.624;11.698;2022-10-16T06:27:48;16.20;79.80
66928;DHT22;59882;45.624;11.698;2022-10-16T06:30:14;16.20;80.10
66928;DHT22;59882;45.624;11.698;2022-10-16T06:32:39;16.30;80.00
66928;DHT22;59882;45.624;11.698;2022-10-16T06:35:05;16.30;80.10
66928;DHT22;59882;45.624;11.698;2022-10-16T06:37:30;16.30;80.40
66928;DHT22;59882;45.624;11.698;2022-10-16T06:39:56;16.30;80.50
66928;DHT22;59882;45.624;11.698;2022-10-16T06:42:22;16.40;80.40
66928;DHT22;59882;45.624;11.698;2022-10-16T06:44:47;16.40;80.40
66928;DHT22;59882;45.624;11.698;2022-10-16T06:47:13;16.40;80.40
66928;DHT22;59882;45.624;11.698;2022-10-16T06:49:39;16.50;80.50
66928;DHT22;59882;45.624;11.698;2022-10-16T06:52:04;16.50;80.30
66928;DHT22;59882;45.624;11.698;2022-10-16T06:54:30;16.60;80.40
66928;DHT22;59882;45.624;11.698;2022-10-16T06:56:56;16.60;80.40
66928;DHT22;59882;45.624;11.698;2022-10-16T06:59:21;16.70;80.50
66928;DHT22;59882;45.624;11.698;2022-10-16T07:01:47;16.70;80.40
66928;DHT22;59882;45.624;11.698;2022-10-16T07:04:13;16.80;80.30
66928;DHT22;59882;45.624;11.698;2022-10-16T07:06:39;16.80;80.20
66928;DHT22;59882;45.624;11.698;2022-10-16T07:09:07;16.90;80.10
66928;DHT22;59882;45.624;11.698;2022-10-16T07:11:33;16.90;80.20
66928;DHT22;59882;45.624;11.698;2022-10-16T07:13:59;17.00;80.20
66928;DHT22;59882;45.624;11.698;2022-10-16T07:16:29;17.00;79.90
66928;DHT22;59882;45.624;11.698;2022-10-16T07:18:56;17.10;79.70
66928;DHT22;59882;45.624;11.698;2022-10-16T07:21:24;17.20;79.90
66928;DHT22;59882;45.624;11.698;2022-10-16T07:23:52;17.20;79.80
66928;DHT22;59882;45.624;11.698;2022-10-16T07:26:18;17.30;79.50
66928;DHT22;59882;45.624;11.698;2022-10-16T07:28:43;17.30;79.20
66928;DHT22;59882;45.624;11.698;2022-10-16T07:31:11;17.40;79.10
66928;DHT22;59882;45.624;11.698;2022-10-16T07:33:39;17.50;78.90
66928;DHT22;59882;45.624;11.698;2022-10-16T07:36:07;17.50;78.60
66928;DHT22;59882;45.624;11.698;2022-10-16T07:38:33;17.60;77.90
66928;DHT22;59882;45.624;11.698;2022-10-16T07:41:04;17.70;77.80
66928;DHT22;59882;45.624;11.698;2022-10-16T07:43:31;17.80;77.80
66928;DHT22;59882;45.624;11.698;2022-10-16T07:45:57;17.80;77.80
66928;DHT22;59882;45.624;11.698;2022-10-16T07:48:26;17.90;77.70
66928;DHT22;59882;45.624;11.698;2022-10-16T07:50:56;17.90;77.40
66928;DHT22;59882;45.624;11.698;2022-10-16T07:53:21;18.00;77.30
66928;DHT22;59882;45.624;11.698;2022-10-16T07:55:47;18.10;77.10
66928;DHT22;59882;45.624;11.698;2022-10-16T07:58:13;18.20;76.50
66928;DHT22;59882;45.624;11.698;2022-10-16T08:00:38;18.20;76.60
66928;DHT22;59882;45.624;11.698;2022-10-16T08:03:04;18.30;76.30
66928;DHT22;59882;45.624;11.698;2022-10-16T08:05:31;18.30;76.20
66928;DHT22;59882;45.624;11.698;2022-10-16T08:07:57;18.40;75.80
66928;DHT22;59882;45.624;11.698;2022-10-16T08:10:25;18.40;75.70
66928;DHT22;59882;45.624;11.698;2022-10-16T08:12:51;18.50;75.30
66928;DHT22;59882;45.624;11.698;2022-10-16T08:15:18;18.50;75.50
66928;DHT22;59882;45.624;11.698;2022-10-16T08:17:44;18.60;75.50
66928;DHT22;59882;45.624;11.698;2022-10-16T08:20:10;18.60;75.30
66928;DHT22;59882;45.624;11.698;2022-10-16T08:22:36;18.70;75.20
66928;DHT22;59882;45.624;11.698;2022-10-16T08:25:02;18.80;75.00
66928;DHT22;59882;45.624;11.698;2022-10-16T08:27:32;18.80;74.90
66928;DHT22;59882;45.624;11.698;2022-10-16T08:29:58;18.90;74.90
66928;DHT22;59882;45.624;11.698;2022-10-16T08:32:24;18.90;74.80
66928;DHT22;59882;45.624;11.698;2022-10-16T08:34:49;18.90;74.40
66928;DHT22;59882;45.624;11.698;2022-10-16T08:37:15;18.90;74.20
66928;DHT22;59882;45.624;11.698;2022-10-16T08:39:40;19.10;74.10
66928;DHT22;59882;45.624;11.698;2022-10-16T08:48:21;19.20;73.60
66928;DHT22;59882;45.624;11.698;2022-10-16T08:50:52;19.30;73.10
66928;DHT22;59882;45.624;11.698;2022-10-16T08:53:33;19.30;73.10
66928;DHT22;59882;45.624;11.698;2022-10-16T08:56:03;19.30;72.90
66928;DHT22;59882;45.624;11.698;2022-10-16T08:58:30;19.40;72.90
66928;DHT22;59882;45.624;11.698;2022-10-16T09:00:58;19.40;72.80
66928;DHT22;59882;45.624;11.698;2022-10-16T09:12:21;19.50;72.00
66928;DHT22;59882;45.624;11.698;2022-10-16T09:15:06;19.60;72.00
66928;DHT22;59882;45.624;11.698;2022-10-16T09:22:35;19.70;72.30
66928;DHT22;59882;45.624;11.698;2022-10-16T09:25:19;19.70;72.30
66928;DHT22;59882;45.624;11.698;2022-10-16T09:27:48;19.80;72.00
66928;DHT22;59882;45.624;11.698;2022-10-16T09:30:19;19.70;72.20
66928;DHT22;59882;45.624;11.698;2022-10-16T09:32:49;19.80;71.90
66928;DHT22;59882;45.624;11.698;2022-10-16T09:35:19;19.90;71.70
66928;DHT22;59882;45.624;11.698;2022-10-16T09:37:48;19.90;71.60
66928;DHT22;59882;45.624;11.698;2022-10-16T09:43:12;20.00;71.90
66928;DHT22;59882;45.624;11.698;2022-10-16T09:45:39;20.00;71.20
66928;DHT22;59882;45.624;11.698;2022-10-16T09:48:12;20.10;71.20
66928;DHT22;59882;45.624;11.698;2022-10-16T09:50:38;20.20;71.10
66928;DHT22;59882;45.624;11.698;2022-10-16T09:53:10;20.20;71.20
66928;DHT22;59882;45.624;11.698;2022-10-16T09:55:36;20.30;70.70
66928;DHT22;59882;45.624;11.698;2022-10-16T09:58:13;20.30;70.80
66928;DHT22;59882;45.624;11.698;2022-10-16T10:00:41;20.40;70.50
66928;DHT22;59882;45.624;11.698;2022-10-16T10:03:10;20.40;70.60
66928;DHT22;59882;45.624;11.698;2022-10-16T10:05:39;20.50;70.00
66928;DHT22;59882;45.624;11.698;2022-10-16T10:08:05;20.60;70.10
66928;DHT22;59882;45.624;11.698;2022-10-16T10:10:39;20.70;70.10
66928;DHT22;59882;45.624;11.698;2022-10-16T10:13:20;20.80;69.90
66928;DHT22;59882;45.624;11.698;2022-10-16T10:15:47;20.90;69.50
66928;DHT22;59882;45.624;11.698;2022-10-16T10:18:20;20.90;69.30
66928;DHT22;59882;45.624;11.698;2022-10-16T10:20:58;21.00;67.60
66928;DHT22;59882;45.624;11.698;2022-10-16T10:23:27;21.10;68.30
66928;DHT22;59882;45.624;11.698;2022-10-16T10:26:15;21.10;68.30
66928;DHT22;59882;45.624;11.698;2022-10-16T10:28:47;21.20;68.30
66928;DHT22;59882;45.624;11.698;2022-10-16T10:31:48;21.40;67.90
66928;DHT22;59882;45.624;11.698;2022-10-16T10:42:47;21.70;65.30
66928;DHT22;59882;45.624;11.698;2022-10-16T10:48:05;21.90;65.90
66928;DHT22;59882;45.624;11.698;2022-10-16T10:51:28;22.00;65.60
66928;DHT22;59882;45.624;11.698;2022-10-16T10:53:52;22.10;65.80
66928;DHT22;59882;45.624;11.698;2022-10-16T11:01:55;22.40;64.20
66928;DHT22;59882;45.624;11.698;2022-10-16T11:07:28;22.70;64.10
66928;DHT22;59882;45.624;11.698;2022-10-16T11:10:03;22.80;64.40
66928;DHT22;59882;45.624;11.698;2022-10-16T11:12:35;22.90;64.50
66928;DHT22;59882;45.624;11.698;2022-10-16T11:17:57;23.20;63.70
66928;DHT22;59882;45.624;11.698;2022-10-16T11:20:32;23.30;63.00
66928;DHT22;59882;45.624;11.698;2022-10-16T11:23:05;23.40;62.10
66928;DHT22;59882;45.624;11.698;2022-10-16T11:25:33;23.60;62.20
66928;DHT22;59882;45.624;11.698;2022-10-16T11:28:22;23.70;59.40
66928;DHT22;59882;45.624;11.698;2022-10-16T11:31:05;23.80;60.40
66928;DHT22;59882;45.624;11.698;2022-10-16T11:39:07;24.10;59.70
66928;DHT22;59882;45.624;11.698;2022-10-16T11:49:50;24.70;58.40
66928;DHT22;59882;45.624;11.698;2022-10-16T11:52:28;24.80;57.70
66928;DHT22;59882;45.624;11.698;2022-10-16T11:55:02;24.90;56.60
66928;DHT22;59882;45.624;11.698;2022-10-16T11:57:36;24.90;56.80
66928;DHT22;59882;45.624;11.698;2022-10-16T12:00:06;24.90;56.50
66928;DHT22;59882;45.624;11.698;2022-10-16T12:02:54;25.00;56.30
66928;DHT22;59882;45.624;11.698;2022-10-16T12:08:13;25.30;57.00
66928;DHT22;59882;45.624;11.698;2022-10-16T12:10:41;25.70;53.90
66928;DHT22;59882;45.624;11.698;2022-10-16T12:13:37;26.20;55.10
66928;DHT22;59882;45.624;11.698;2022-10-16T12:18:43;27.20;52.60
66928;DHT22;59882;45.624;11.698;2022-10-16T12:21:10;27.30;50.30
66928;DHT22;59882;45.624;11.698;2022-10-16T12:23:57;27.30;51.40
66928;DHT22;59882;45.624;11.698;2022-10-16T12:26:37;27.40;50.40
66928;DHT22;59882;45.624;11.698;2022-10-16T12:29:24;27.60;50.50
66928;DHT22;59882;45.624;11.698;2022-10-16T12:31:53;27.50;47.50
66928;DHT22;59882;45.624;11.698;2022-10-16T12:37:14;27.30;49.30
66928;DHT22;59882;45.624;11.698;2022-10-16T12:39:44;27.40;49.80
66928;DHT22;59882;45.624;11.698;2022-10-16T12:44:55;27.80;49.00
66928;DHT22;59882;45.624;11.698;2022-10-16T12:47:37;27.90;48.80
66928;DHT22;59882;45.624;11.698;2022-10-16T12:50:23;28.40;48.80
66928;DHT22;59882;45.624;11.698;2022-10-16T12:52:49;29.00;47.50
66928;DHT22;59882;45.624;11.698;2022-10-16T12:55:17;29.60;45.30
66928;DHT22;59882;45.624;11.698;2022-10-16T13:00:43;29.70;43.90
66928;DHT22;59882;45.624;11.698;2022-10-16T13:06:06;28.70;46.20
66928;DHT22;59882;45.624;11.698;2022-10-16T13:08:51;28.30;47.00
66928;DHT22;59882;45.624;11.698;2022-10-16T13:17:08;27.50;49.40
66928;DHT22;59882;45.624;11.698;2022-10-16T13:22:08;28.00;49.00
66928;DHT22;59882;45.624;11.698;2022-10-16T13:30:12;28.20;48.20
66928;DHT22;59882;45.624;11.698;2022-10-16T13:32:39;28.50;47.40
66928;DHT22;59882;45.624;11.698;2022-10-16T13:35:22;28.80;46.70
66928;DHT22;59882;45.624;11.698;2022-10-16T13:37:47;28.90;47.00
66928;DHT22;59882;45.624;11.698;2022-10-16T13:40:23;29.20;45.80
66928;DHT22;59882;45.624;11.698;2022-10-16T13:42:50;29.60;45.00
66928;DHT22;59882;45.624;11.698;2022-10-16T13:45:23;30.00;45.00
66928;DHT22;59882;45.624;11.698;2022-10-16T13:48:01;30.30;42.60
66928;DHT22;59882;45.624;11.698;2022-10-16T13:50:27;30.60;41.60
66928;DHT22;59882;45.624;11.698;2022-10-16T13:53:03;30.80;42.30
66928;DHT22;59882;45.624;11.698;2022-10-16T13:55:29;30.90;41.50
66928;DHT22;59882;45.624;11.698;2022-10-16T13:58:13;31.00;41.30
66928;DHT22;59882;45.624;11.698;2022-10-16T14:00:40;31.10;41.20
66928;DHT22;59882;45.624;11.698;2022-10-16T14:03:17;31.10;42.40
66928;DHT22;59882;45.624;11.698;2022-10-16T14:05:49;31.20;41.90
66928;DHT22;59882;45.624;11.698;2022-10-16T14:08:15;31.20;42.10
66928;DHT22;59882;45.624;11.698;2022-10-16T14:10:41;31.10;41.80
66928;DHT22;59882;45.624;11.698;2022-10-16T14:13:12;30.90;42.30
66928;DHT22;59882;45.624;11.698;2022-10-16T14:15:38;30.60;42.70
66928;DHT22;59882;45.624;11.698;2022-10-16T14:18:04;30.20;42.50
66928;DHT22;59882;45.624;11.698;2022-10-16T14:20:33;29.90;43.50
66928;DHT22;59882;45.624;11.698;2022-10-16T14:23:37;29.50;44.40
66928;DHT22;59882;45.624;11.698;2022-10-16T14:28:39;28.80;44.90
66928;DHT22;59882;45.624;11.698;2022-10-16T14:31:31;28.50;45.60
66928;DHT22;59882;45.624;11.698;2022-10-16T14:33:58;28.20;46.10
66928;DHT22;59882;45.624;11.698;2022-10-16T14:36:24;28.00;47.00
66928;DHT22;59882;45.624;11.698;2022-10-16T14:39:04;27.70;48.00
66928;DHT22;59882;45.624;11.698;2022-10-16T14:41:41;27.50;47.70
66928;DHT22;59882;45.624;11.698;2022-10-16T14:44:12;27.30;48.30
66928;DHT22;59882;45.624;11.698;2022-10-16T14:46:40;27.10;48.50
66928;DHT22;59882;45.624;11.698;2022-10-16T14:51:36;26.70;48.70
66928;DHT22;59882;45.624;11.698;2022-10-16T14:54:03;26.60;49.10
66928;DHT22;59882;45.624;11.698;2022-10-16T14:56:32;26.40;50.00
66928;DHT22;59882;45.624;11.698;2022-10-16T14:59:00;26.30;50.70
66928;DHT22;59882;45.624;11.698;2022-10-16T15:01:26;26.20;51.10
66928;DHT22;59882;45.624;11.698;2022-10-16T15:03:51;26.10;51.80
66928;DHT22;59882;45.624;11.698;2022-10-16T15:06:19;26.00;51.80
66928;DHT22;59882;45.624;11.698;2022-10-16T15:08:45;25.90;51.60
66928;DHT22;59882;45.624;11.698;2022-10-16T15:11:13;25.80;51.80
66928;DHT22;59882;45.624;11.698;2022-10-16T15:13:39;25.70;52.00
66928;DHT22;59882;45.624;11.698;2022-10-16T15:16:11;25.60;51.80
66928;DHT22;59882;45.624;11.698;2022-10-16T15:18:36;25.50;51.80
66928;DHT22;59882;45.624;11.698;2022-10-16T15:21:02;25.40;52.00
66928;DHT22;59882;45.624;11.698;2022-10-16T15:23:28;25.30;52.70
66928;DHT22;59882;45.624;11.698;2022-10-16T15:25:55;25.20;53.00
66928;DHT22;59882;45.624;11.698;2022-10-16T15:28:22;25.10;53.30
66928;DHT22;59882;45.624;11.698;2022-10-16T15:30:53;25.00;53.60
66928;DHT22;59882;45.624;11.698;2022-10-16T15:33:25;25.00;54.30
66928;DHT22;59882;45.624;11.698;2022-10-16T15:35:53;24.90;54.40
66928;DHT22;59882;45.624;11.698;2022-10-16T15:38:21;24.90;54.80
66928;DHT22;59882;45.624;11.698;2022-10-16T15:40:47;24.80;55.00
66928;DHT22;59882;45.624;11.698;2022-10-16T15:43:13;24.60;55.80
66928;DHT22;59882;45.624;11.698;2022-10-16T15:45:39;24.60;56.20
66928;DHT22;59882;45.624;11.698;2022-10-16T15:48:05;24.50;56.10
66928;DHT22;59882;45.624;11.698;2022-10-16T15:50:31;24.40;56.40
66928;DHT22;59882;45.624;11.698;2022-10-16T15:52:57;24.30;56.80
66928;DHT22;59882;45.624;11.698;2022-10-16T15:55:23;24.20;56.60
66928;DHT22;59882;45.624;11.698;2022-10-16T15:57:49;24.10;56.80
66928;DHT22;59882;45.624;11.698;2022-10-16T16:00:17;24.00;57.10
66928;DHT22;59882;45.624;11.698;2022-10-16T16:02:44;23.90;57.30
66928;DHT22;59882;45.624;11.698;2022-10-16T16:05:15;23.80;57.60
66928;DHT22;59882;45.624;11.698;2022-10-16T16:07:41;23.60;58.00
66928;DHT22;59882;45.624;11.698;2022-10-16T16:10:08;23.50;58.50
66928;DHT22;59882;45.624;11.698;2022-10-16T16:12:35;23.40;58.40
66928;DHT22;59882;45.624;11.698;2022-10-16T16:15:00;23.30;59.50
66928;DHT22;59882;45.624;11.698;2022-10-16T16:17:26;23.20;59.20
66928;DHT22;59882;45.624;11.698;2022-10-16T16:19:52;23.10;59.60
66928;DHT22;59882;45.624;11.698;2022-10-16T16:22:17;23.00;60.10
66928;DHT22;59882;45.624;11.698;2022-10-16T16:24:43;22.90;60.30
66928;DHT22;59882;45.624;11.698;2022-10-16T16:27:09;22.80;60.20
66928;DHT22;59882;45.624;11.698;2022-10-16T16:29:35;22.60;61.20
66928;DHT22;59882;45.624;11.698;2022-10-16T16:32:01;22.50;61.70
66928;DHT22;59882;45.624;11.698;2022-10-16T16:34:28;22.50;61.30
66928;DHT22;59882;45.624;11.698;2022-10-16T16:36:54;22.40;62.10
66928;DHT22;59882;45.624;11.698;2022-10-16T16:39:21;22.30;62.00
66928;DHT22;59882;45.624;11.698;2022-10-16T16:41:46;22.20;62.80
66928;DHT22;59882;45.624;11.698;2022-10-16T16:44:13;22.10;63.00
66928;DHT22;59882;45.624;11.698;2022-10-16T16:46:39;22.00;64.00
66928;DHT22;59882;45.624;11.698;2022-10-16T16:49:10;21.90;64.60
66928;DHT22;59882;45.624;11.698;2022-10-16T16:51:36;21.80;65.10
66928;DHT22;59882;45.624;11.698;2022-10-16T16:54:02;21.70;65.00
66928;DHT22;59882;45.624;11.698;2022-10-16T16:56:28;21.60;65.10
66928;DHT22;59882;45.624;11.698;2022-10-16T16:58:55;21.50;66.00
66928;DHT22;59882;45.624;11.698;2022-10-16T17:01:24;21.40;65.50
66928;DHT22;59882;45.624;11.698;2022-10-16T17:03:52;21.40;66.60
66928;DHT22;59882;45.624;11.698;2022-10-16T17:06:20;21.40;66.10
66928;DHT22;59882;45.624;11.698;2022-10-16T17:08:47;21.30;66.00
66928;DHT22;59882;45.624;11.698;2022-10-16T17:11:18;21.30;66.30
66928;DHT22;59882;45.624;11.698;2022-10-16T17:13:44;21.20;66.70